sensor_id;sensor_type;location;lat;lon;timestamp;temperature;humidity
65470;DHT22;52067;50.710;14.492;2024-03-07T00:02:22;4.18;85.03
65470;DHT22;52067;50.710;14.492;2024-03-07T00:04:48;4.28;84.72
65470;DHT22;52067;50.710;14.492;2024-03-07T00:07:14;4.37;84.46
65470;DHT22;52067;50.710;14.492;2024-03-07T00:09:39;4.37;84.30
65470;DHT22;52067;50.710;14.492;2024-03-07T00:12:05;4.30;84.16
65470;DHT22;52067;50.710;14.492;2024-03-07T00:14:32;4.15;84.68
65470;DHT22;52067;50.710;14.492;2024-03-07T00:16:59;4.01;85.28
65470;DHT22;52067;50.710;14.492;2024-03-07T00:19:25;4.03;85.77
65470;DHT22;52067;50.710;14.492;2024-03-07T00:21:58;4.14;86.19
65470;DHT22;52067;50.710;14.492;2024-03-07T00:24:24;4.22;85.50
65470;DHT22;52067;50.710;14.492;2024-03-07T00:26:50;4.21;85.40
65470;DHT22;52067;50.710;14.492;2024-03-07T00:29:19;4.27;85.31
65470;DHT22;52067;50.710;14.492;2024-03-07T00:31:45;4.22;85.11
65470;DHT22;52067;50.710;14.492;2024-03-07T00:34:14;4.35;84.99
65470;DHT22;52067;50.710;14.492;2024-03-07T00:36:44;4.32;84.82
65470;DHT22;52067;50.710;14.492;2024-03-07T00:39:09;4.28;85.01
65470;DHT22;52067;50.710;14.492;2024-03-07T00:41:38;4.31;85.24
65470;DHT22;52067;50.710;14.492;2024-03-07T00:44:03;4.15;85.96
65470;DHT22;52067;50.710;14.492;2024-03-07T00:46:28;4.00;86.51
65470;DHT22;52067;50.710;14.492;2024-03-07T00:48:54;4.04;86.77
65470;DHT22;52067;50.710;14.492;2024-03-07T00:51:20;4.30;86.02
65470;DHT22;52067;50.710;14.492;2024-03-07T00:53:45;4.35;85.68
65470;DHT22;52067;50.710;14.492;2024-03-07T00:56:12;4.45;85.92
65470;DHT22;52067;50.710;14.492;2024-03-07T00:58:37;4.45;85.21
65470;DHT22;52067;50.710;14.492;2024-03-07T01:01:03;4.55;85.64
65470;DHT22;52067;50.710;14.492;2024-03-07T01:03:28;4.56;85.62
65470;DHT22;52067;50.710;14.492;2024-03-07T01:05:54;4.62;85.52
65470;DHT22;52067;50.710;14.492;2024-03-07T01:08:19;4.68;84.83
65470;DHT22;52067;50.710;14.492;2024-03-07T01:10:45;4.75;84.93
65470;DHT22;52067;50.710;14.492;2024-03-07T01:13:10;4.82;84.34
65470;DHT22;52067;50.710;14.492;2024-03-07T01:15:44;4.69;84.56
65470;DHT22;52067;50.710;14.492;2024-03-07T01:18:10;4.66;85.15
65470;DHT22;52067;50.710;14.492;2024-03-07T01:20:35;4.90;84.65
65470;DHT22;52067;50.710;14.492;2024-03-07T01:23:00;4.86;84.42
65470;DHT22;52067;50.710;14.492;2024-03-07T01:25:26;4.96;84.27
65470;DHT22;52067;50.710;14.492;2024-03-07T01:27:52;5.01;83.81
65470;DHT22;52067;50.710;14.492;2024-03-07T01:30:17;4.96;84.18
65470;DHT22;52067;50.710;14.492;2024-03-07T01:32:43;5.09;84.15
65470;DHT22;52067;50.710;14.492;2024-03-07T01:35:09;5.17;83.62
65470;DHT22;52067;50.710;14.492;2024-03-07T01:37:35;5.07;83.56
65470;DHT22;52067;50.710;14.492;2024-03-07T01:40:02;4.84;83.34
65470;DHT22;52067;50.710;14.492;2024-03-07T01:42:28;4.55;83.80
65470;DHT22;52067;50.710;14.492;2024-03-07T01:44:53;4.59;83.87
65470;DHT22;52067;50.710;14.492;2024-03-07T01:47:19;4.61;83.14
65470;DHT22;52067;50.710;14.492;2024-03-07T01:49:44;4.66;82.67
65470;DHT22;52067;50.710;14.492;2024-03-07T01:52:10;4.55;83.07
65470;DHT22;52067;50.710;14.492;2024-03-07T01:54:36;4.61;82.58
65470;DHT22;52067;50.710;14.492;2024-03-07T01:57:02;4.59;82.22
65470;DHT22;52067;50.710;14.492;2024-03-07T01:59:29;4.55;82.67
65470;DHT22;52067;50.710;14.492;2024-03-07T02:01:56;4.49;82.67
65470;DHT22;52067;50.710;14.492;2024-03-07T02:04:22;4.51;82.73
65470;DHT22;52067;50.710;14.492;2024-03-07T02:06:49;4.49;82.40
65470;DHT22;52067;50.710;14.492;2024-03-07T02:09:15;4.55;82.35
65470;DHT22;52067;50.710;14.492;2024-03-07T02:11:40;4.53;82.20
65470;DHT22;52067;50.710;14.492;2024-03-07T02:14:05;4.71;81.51
65470;DHT22;52067;50.710;14.492;2024-03-07T02:16:31;4.69;81.34
65470;DHT22;52067;50.710;14.492;2024-03-07T02:18:57;4.65;81.20
65470;DHT22;52067;50.710;14.492;2024-03-07T02:21:24;4.59;81.08
65470;DHT22;52067;50.710;14.492;2024-03-07T02:23:49;4.55;80.94
65470;DHT22;52067;50.710;14.492;2024-03-07T02:26:15;4.42;81.40
65470;DHT22;52067;50.710;14.492;2024-03-07T02:28:40;4.31;81.75
65470;DHT22;52067;50.710;14.492;2024-03-07T02:31:05;4.25;81.80
65470;DHT22;52067;50.710;14.492;2024-03-07T02:33:31;4.21;81.74
65470;DHT22;52067;50.710;14.492;2024-03-07T02:35:57;4.03;81.66
65470;DHT22;52067;50.710;14.492;2024-03-07T02:38:23;4.04;82.34
65470;DHT22;52067;50.710;14.492;2024-03-07T02:40:48;4.03;82.52
65470;DHT22;52067;50.710;14.492;2024-03-07T02:43:13;4.07;81.93
65470;DHT22;52067;50.710;14.492;2024-03-07T02:45:39;4.05;81.81
65470;DHT22;52067;50.710;14.492;2024-03-07T02:48:04;4.03;82.02
65470;DHT22;52067;50.710;14.492;2024-03-07T02:50:37;3.93;82.14
65470;DHT22;52067;50.710;14.492;2024-03-07T02:53:06;4.01;81.77
65470;DHT22;52067;50.710;14.492;2024-03-07T02:55:32;3.98;81.39
65470;DHT22;52067;50.710;14.492;2024-03-07T02:57:58;3.76;81.60
65470;DHT22;52067;50.710;14.492;2024-03-07T03:00:25;3.69;82.11
65470;DHT22;52067;50.710;14.492;2024-03-07T03:02:55;3.59;82.34
65470;DHT22;52067;50.710;14.492;2024-03-07T03:05:21;3.35;82.68
65470;DHT22;52067;50.710;14.492;2024-03-07T03:07:47;3.26;82.85
65470;DHT22;52067;50.710;14.492;2024-03-07T03:10:22;3.01;82.88
65470;DHT22;52067;50.710;14.492;2024-03-07T03:12:57;3.11;82.69
65470;DHT22;52067;50.710;14.492;2024-03-07T03:15:24;2.74;83.67
65470;DHT22;52067;50.710;14.492;2024-03-07T03:17:50;2.52;84.11
65470;DHT22;52067;50.710;14.492;2024-03-07T03:20:15;2.57;84.85
65470;DHT22;52067;50.710;14.492;2024-03-07T03:22:51;2.49;84.79
65470;DHT22;52067;50.710;14.492;2024-03-07T03:25:17;2.32;85.20
65470;DHT22;52067;50.710;14.492;2024-03-07T03:27:43;2.21;86.00
65470;DHT22;52067;50.710;14.492;2024-03-07T03:30:08;2.15;86.71
65470;DHT22;52067;50.710;14.492;2024-03-07T03:32:38;2.33;85.69
65470;DHT22;52067;50.710;14.492;2024-03-07T03:35:04;2.33;85.31
65470;DHT22;52067;50.710;14.492;2024-03-07T03:37:30;2.40;85.40
65470;DHT22;52067;50.710;14.492;2024-03-07T03:39:55;2.37;85.00
65470;DHT22;52067;50.710;14.492;2024-03-07T03:42:20;2.25;85.34
65470;DHT22;52067;50.710;14.492;2024-03-07T03:44:46;2.14;84.72
65470;DHT22;52067;50.710;14.492;2024-03-07T03:47:12;2.29;85.36
65470;DHT22;52067;50.710;14.492;2024-03-07T03:49:37;2.14;86.22
65470;DHT22;52067;50.710;14.492;2024-03-07T03:52:02;2.39;85.15
65470;DHT22;52067;50.710;14.492;2024-03-07T03:54:28;2.58;84.54
65470;DHT22;52067;50.710;14.492;2024-03-07T03:56:54;2.66;84.34
65470;DHT22;52067;50.710;14.492;2024-03-07T03:59:19;2.73;84.07
65470;DHT22;52067;50.710;14.492;2024-03-07T04:01:45;2.77;84.27
65470;DHT22;52067;50.710;14.492;2024-03-07T04:04:10;3.01;83.93
65470;DHT22;52067;50.710;14.492;2024-03-07T04:06:36;3.09;83.00
65470;DHT22;52067;50.710;14.492;2024-03-07T04:09:01;3.18;83.74
65470;DHT22;52067;50.710;14.492;2024-03-07T04:11:26;3.29;83.20
65470;DHT22;52067;50.710;14.492;2024-03-07T04:13:52;3.19;83.68
65470;DHT22;52067;50.710;14.492;2024-03-07T04:16:17;3.29;83.37
65470;DHT22;52067;50.710;14.492;2024-03-07T04:18:42;3.32;82.09
65470;DHT22;52067;50.710;14.492;2024-03-07T04:21:08;3.38;82.41
65470;DHT22;52067;50.710;14.492;2024-03-07T04:23:34;3.31;82.23
65470;DHT22;52067;50.710;14.492;2024-03-07T04:26:00;3.32;82.22
65470;DHT22;52067;50.710;14.492;2024-03-07T04:28:25;3.26;81.86
65470;DHT22;52067;50.710;14.492;2024-03-07T04:30:51;2.91;82.29
65470;DHT22;52067;50.710;14.492;2024-03-07T04:33:18;2.73;82.40
65470;DHT22;52067;50.710;14.492;2024-03-07T04:35:44;2.64;82.66
65470;DHT22;52067;50.710;14.492;2024-03-07T04:38:10;2.45;83.15
65470;DHT22;52067;50.710;14.492;2024-03-07T04:40:41;2.36;83.86
65470;DHT22;52067;50.710;14.492;2024-03-07T04:43:06;2.43;83.34
65470;DHT22;52067;50.710;14.492;2024-03-07T04:45:33;2.43;83.16
65470;DHT22;52067;50.710;14.492;2024-03-07T04:47:59;2.45;83.10
65470;DHT22;52067;50.710;14.492;2024-03-07T04:50:24;2.32;83.12
65470;DHT22;52067;50.710;14.492;2024-03-07T04:52:51;2.02;84.06
65470;DHT22;52067;50.710;14.492;2024-03-07T04:55:17;1.85;84.51
65470;DHT22;52067;50.710;14.492;2024-03-07T04:57:43;2.05;84.88
65470;DHT22;52067;50.710;14.492;2024-03-07T05:00:10;1.98;85.26
65470;DHT22;52067;50.710;14.492;2024-03-07T05:02:42;2.05;85.05
65470;DHT22;52067;50.710;14.492;2024-03-07T05:05:08;2.09;84.32
65470;DHT22;52067;50.710;14.492;2024-03-07T05:07:33;2.42;83.21
65470;DHT22;52067;50.710;14.492;2024-03-07T05:10:04;2.67;81.93
65470;DHT22;52067;50.710;14.492;2024-03-07T05:12:31;2.79;81.21
65470;DHT22;52067;50.710;14.492;2024-03-07T05:14:56;2.95;80.31
65470;DHT22;52067;50.710;14.492;2024-03-07T05:17:21;3.07;79.95
65470;DHT22;52067;50.710;14.492;2024-03-07T05:19:47;3.09;79.97
65470;DHT22;52067;50.710;14.492;2024-03-07T05:22:14;3.17;79.27
65470;DHT22;52067;50.710;14.492;2024-03-07T05:24:44;3.11;79.85
65470;DHT22;52067;50.710;14.492;2024-03-07T05:27:09;3.07;79.75
65470;DHT22;52067;50.710;14.492;2024-03-07T05:29:38;3.09;79.33
65470;DHT22;52067;50.710;14.492;2024-03-07T05:32:24;3.15;79.42
65470;DHT22;52067;50.710;14.492;2024-03-07T05:34:50;3.08;79.17
65470;DHT22;52067;50.710;14.492;2024-03-07T05:37:16;3.05;78.77
65470;DHT22;52067;50.710;14.492;2024-03-07T05:39:41;2.94;79.04
65470;DHT22;52067;50.710;14.492;2024-03-07T05:42:06;2.84;78.73
65470;DHT22;52067;50.710;14.492;2024-03-07T05:44:32;2.77;79.15
65470;DHT22;52067;50.710;14.492;2024-03-07T05:46:58;2.87;78.16
65470;DHT22;52067;50.710;14.492;2024-03-07T05:49:23;2.73;78.47
65470;DHT22;52067;50.710;14.492;2024-03-07T05:51:49;2.74;78.47
65470;DHT22;52067;50.710;14.492;2024-03-07T05:54:14;2.63;78.35
65470;DHT22;52067;50.710;14.492;2024-03-07T05:56:41;2.60;78.27
65470;DHT22;52067;50.710;14.492;2024-03-07T05:59:07;2.64;78.06
65470;DHT22;52067;50.710;14.492;2024-03-07T06:01:35;2.66;78.33
65470;DHT22;52067;50.710;14.492;2024-03-07T06:04:01;2.67;78.39
65470;DHT22;52067;50.710;14.492;2024-03-07T06:06:26;2.74;77.89
65470;DHT22;52067;50.710;14.492;2024-03-07T06:08:52;2.76;77.06
65470;DHT22;52067;50.710;14.492;2024-03-07T06:11:18;2.91;77.50
65470;DHT22;52067;50.710;14.492;2024-03-07T06:13:46;2.84;74.95
65470;DHT22;52067;50.710;14.492;2024-03-07T06:16:12;3.04;75.48
65470;DHT22;52067;50.710;14.492;2024-03-07T06:18:42;3.09;75.00
65470;DHT22;52067;50.710;14.492;2024-03-07T06:21:08;3.15;74.04
65470;DHT22;52067;50.710;14.492;2024-03-07T06:23:34;3.03;74.48
65470;DHT22;52067;50.710;14.492;2024-03-07T06:25:59;3.12;75.09
65470;DHT22;52067;50.710;14.492;2024-03-07T06:28:26;3.03;75.07
65470;DHT22;52067;50.710;14.492;2024-03-07T06:30:54;3.14;75.14
65470;DHT22;52067;50.710;14.492;2024-03-07T06:33:20;3.12;75.34
65470;DHT22;52067;50.710;14.492;2024-03-07T06:35:47;3.12;75.70
65470;DHT22;52067;50.710;14.492;2024-03-07T06:38:12;3.04;76.41
65470;DHT22;52067;50.710;14.492;2024-03-07T06:40:38;3.08;76.08
65470;DHT22;52067;50.710;14.492;2024-03-07T06:43:10;2.97;76.66
65470;DHT22;52067;50.710;14.492;2024-03-07T06:45:36;3.03;76.60
65470;DHT22;52067;50.710;14.492;2024-03-07T06:48:05;3.01;77.14
65470;DHT22;52067;50.710;14.492;2024-03-07T06:50:36;3.21;76.09
65470;DHT22;52067;50.710;14.492;2024-03-07T06:53:05;3.34;76.06
65470;DHT22;52067;50.710;14.492;2024-03-07T06:55:32;3.22;75.41
65470;DHT22;52067;50.710;14.492;2024-03-07T06:57:59;3.05;75.17
65470;DHT22;52067;50.710;14.492;2024-03-07T07:00:25;3.08;75.00
65470;DHT22;52067;50.710;14.492;2024-03-07T07:02:52;3.18;74.83
65470;DHT22;52067;50.710;14.492;2024-03-07T07:05:20;3.19;75.12
65470;DHT22;52067;50.710;14.492;2024-03-07T07:07:47;3.49;75.29
65470;DHT22;52067;50.710;14.492;2024-03-07T07:10:13;3.29;74.30
65470;DHT22;52067;50.710;14.492;2024-03-07T07:12:44;3.35;74.13
65470;DHT22;52067;50.710;14.492;2024-03-07T07:15:11;3.31;73.34
65470;DHT22;52067;50.710;14.492;2024-03-07T07:17:37;3.28;72.91
65470;DHT22;52067;50.710;14.492;2024-03-07T07:20:03;3.31;73.62
65470;DHT22;52067;50.710;14.492;2024-03-07T07:22:36;3.40;72.88
65470;DHT22;52067;50.710;14.492;2024-03-07T07:25:01;3.66;72.54
65470;DHT22;52067;50.710;14.492;2024-03-07T07:27:26;4.01;72.52
65470;DHT22;52067;50.710;14.492;2024-03-07T07:29:52;4.30;71.19
65470;DHT22;52067;50.710;14.492;2024-03-07T07:32:17;4.42;69.50
65470;DHT22;52067;50.710;14.492;2024-03-07T07:34:43;4.58;67.97
65470;DHT22;52067;50.710;14.492;2024-03-07T07:37:08;4.63;67.49
65470;DHT22;52067;50.710;14.492;2024-03-07T07:39:34;4.44;67.61
65470;DHT22;52067;50.710;14.492;2024-03-07T07:42:00;4.58;67.94
65470;DHT22;52067;50.710;14.492;2024-03-07T07:44:26;4.62;67.41
65470;DHT22;52067;50.710;14.492;2024-03-07T07:46:52;4.46;67.81
65470;DHT22;52067;50.710;14.492;2024-03-07T07:49:17;4.79;67.50
65470;DHT22;52067;50.710;14.492;2024-03-07T07:51:42;4.92;67.71
65470;DHT22;52067;50.710;14.492;2024-03-07T07:54:08;4.86;67.75
65470;DHT22;52067;50.710;14.492;2024-03-07T07:56:34;4.97;67.82
65470;DHT22;52067;50.710;14.492;2024-03-07T07:59:00;5.04;66.75
65470;DHT22;52067;50.710;14.492;2024-03-07T08:01:26;4.82;67.21
65470;DHT22;52067;50.710;14.492;2024-03-07T08:03:52;4.66;67.97
65470;DHT22;52067;50.710;14.492;2024-03-07T08:06:17;4.75;67.71
65470;DHT22;52067;50.710;14.492;2024-03-07T08:08:43;4.94;66.32
65470;DHT22;52067;50.710;14.492;2024-03-07T08:11:09;4.77;65.96
65470;DHT22;52067;50.710;14.492;2024-03-07T08:13:36;4.79;66.18
65470;DHT22;52067;50.710;14.492;2024-03-07T08:16:01;4.90;67.42
65470;DHT22;52067;50.710;14.492;2024-03-07T08:18:26;5.06;65.99
65470;DHT22;52067;50.710;14.492;2024-03-07T08:20:52;4.79;66.19
65470;DHT22;52067;50.710;14.492;2024-03-07T08:23:17;4.73;66.41
65470;DHT22;52067;50.710;14.492;2024-03-07T08:25:42;4.86;65.85
65470;DHT22;52067;50.710;14.492;2024-03-07T08:28:08;5.01;64.65
65470;DHT22;52067;50.710;14.492;2024-03-07T08:30:33;5.10;65.90
65470;DHT22;52067;50.710;14.492;2024-03-07T08:33:00;5.21;65.31
65470;DHT22;52067;50.710;14.492;2024-03-07T08:35:28;5.51;65.37
65470;DHT22;52067;50.710;14.492;2024-03-07T08:37:56;5.10;64.62
65470;DHT22;52067;50.710;14.492;2024-03-07T08:40:23;5.42;63.75
65470;DHT22;52067;50.710;14.492;2024-03-07T08:42:51;5.55;64.27
65470;DHT22;52067;50.710;14.492;2024-03-07T08:45:18;5.72;62.38
65470;DHT22;52067;50.710;14.492;2024-03-07T08:47:48;5.69;63.24
65470;DHT22;52067;50.710;14.492;2024-03-07T08:50:14;5.76;62.80
65470;DHT22;52067;50.710;14.492;2024-03-07T08:52:41;5.72;64.47
65470;DHT22;52067;50.710;14.492;2024-03-07T08:55:08;5.58;62.58
65470;DHT22;52067;50.710;14.492;2024-03-07T08:57:37;5.82;62.68
65470;DHT22;52067;50.710;14.492;2024-03-07T09:00:06;5.98;60.53
65470;DHT22;52067;50.710;14.492;2024-03-07T09:02:37;6.24;61.79
65470;DHT22;52067;50.710;14.492;2024-03-07T09:05:04;6.11;61.89
65470;DHT22;52067;50.710;14.492;2024-03-07T09:07:29;5.66;62.72
65470;DHT22;52067;50.710;14.492;2024-03-07T09:09:55;5.27;63.76
65470;DHT22;52067;50.710;14.492;2024-03-07T09:12:21;5.65;62.87
65470;DHT22;52067;50.710;14.492;2024-03-07T09:14:46;5.92;62.08
65470;DHT22;52067;50.710;14.492;2024-03-07T09:17:12;6.09;62.46
65470;DHT22;52067;50.710;14.492;2024-03-07T09:19:38;5.98;63.35
65470;DHT22;52067;50.710;14.492;2024-03-07T09:22:03;5.83;61.96
65470;DHT22;52067;50.710;14.492;2024-03-07T09:24:30;5.90;61.22
65470;DHT22;52067;50.710;14.492;2024-03-07T09:26:55;6.19;61.15
65470;DHT22;52067;50.710;14.492;2024-03-07T09:29:21;6.87;61.62
65470;DHT22;52067;50.710;14.492;2024-03-07T09:31:49;7.06;58.32
65470;DHT22;52067;50.710;14.492;2024-03-07T09:34:17;7.47;57.29
65470;DHT22;52067;50.710;14.492;2024-03-07T09:36:44;7.36;55.06
65470;DHT22;52067;50.710;14.492;2024-03-07T09:39:09;7.74;60.69
65470;DHT22;52067;50.710;14.492;2024-03-07T09:41:35;7.54;61.55
65470;DHT22;52067;50.710;14.492;2024-03-07T09:44:01;9.15;57.44
65470;DHT22;52067;50.710;14.492;2024-03-07T09:46:28;9.31;55.98
65470;DHT22;52067;50.710;14.492;2024-03-07T09:48:54;8.77;58.09
65470;DHT22;52067;50.710;14.492;2024-03-07T09:51:20;6.75;61.16
65470;DHT22;52067;50.710;14.492;2024-03-07T09:53:51;6.34;63.61
65470;DHT22;52067;50.710;14.492;2024-03-07T09:56:20;6.45;63.15
65470;DHT22;52067;50.710;14.492;2024-03-07T09:58:49;6.29;63.37
65470;DHT22;52067;50.710;14.492;2024-03-07T10:01:15;5.93;63.64
65470;DHT22;52067;50.710;14.492;2024-03-07T10:03:43;5.75;64.97
65470;DHT22;52067;50.710;14.492;2024-03-07T10:06:10;5.58;64.84
65470;DHT22;52067;50.710;14.492;2024-03-07T10:08:36;5.78;66.21
65470;DHT22;52067;50.710;14.492;2024-03-07T10:11:02;5.45;65.94
65470;DHT22;52067;50.710;14.492;2024-03-07T10:13:28;5.24;67.19
65470;DHT22;52067;50.710;14.492;2024-03-07T10:15:56;4.87;66.91
65470;DHT22;52067;50.710;14.492;2024-03-07T10:18:25;5.04;67.55
65470;DHT22;52067;50.710;14.492;2024-03-07T10:20:54;5.37;67.34
65470;DHT22;52067;50.710;14.492;2024-03-07T10:23:20;5.28;66.48
65470;DHT22;52067;50.710;14.492;2024-03-07T10:25:46;5.13;66.69
65470;DHT22;52067;50.710;14.492;2024-03-07T10:28:12;5.14;65.50
65470;DHT22;52067;50.710;14.492;2024-03-07T10:30:42;5.21;65.31
65470;DHT22;52067;50.710;14.492;2024-03-07T10:33:09;4.87;66.76
65470;DHT22;52067;50.710;14.492;2024-03-07T10:35:37;4.96;66.01
65470;DHT22;52067;50.710;14.492;2024-03-07T10:38:02;5.06;65.55
65470;DHT22;52067;50.710;14.492;2024-03-07T10:40:37;5.11;65.59
65470;DHT22;52067;50.710;14.492;2024-03-07T10:43:09;5.35;65.78
65470;DHT22;52067;50.710;14.492;2024-03-07T10:45:40;5.31;64.30
65470;DHT22;52067;50.710;14.492;2024-03-07T10:48:11;5.14;64.95
65470;DHT22;52067;50.710;14.492;2024-03-07T10:53:29;5.04;65.26
65470;DHT22;52067;50.710;14.492;2024-03-07T10:56:18;4.93;65.46
65470;DHT22;52067;50.710;14.492;2024-03-07T10:59:16;5.09;65.22
65470;DHT22;52067;50.710;14.492;2024-03-07T11:04:17;5.45;65.99
65470;DHT22;52067;50.710;14.492;2024-03-07T11:06:43;5.69;65.75
65470;DHT22;52067;50.710;14.492;2024-03-07T11:09:10;5.45;64.97
65470;DHT22;52067;50.710;14.492;2024-03-07T11:11:39;4.97;66.78
65470;DHT22;52067;50.710;14.492;2024-03-07T11:14:10;4.93;66.63
65470;DHT22;52067;50.710;14.492;2024-03-07T11:16:38;4.63;66.67
65470;DHT22;52067;50.710;14.492;2024-03-07T11:21:50;4.96;65.90
65470;DHT22;52067;50.710;14.492;2024-03-07T11:24:30;4.97;65.95
65470;DHT22;52067;50.710;14.492;2024-03-07T11:27:02;5.01;65.42
65470;DHT22;52067;50.710;14.492;2024-03-07T11:29:52;5.31;65.94
65470;DHT22;52067;50.710;14.492;2024-03-07T11:32:23;5.27;65.04
65470;DHT22;52067;50.710;14.492;2024-03-07T11:34:49;5.47;64.97
65470;DHT22;52067;50.710;14.492;2024-03-07T11:37:19;5.50;64.80
65470;DHT22;52067;50.710;14.492;2024-03-07T11:39:52;6.10;64.03
65470;DHT22;52067;50.710;14.492;2024-03-07T11:42:29;5.86;64.29
65470;DHT22;52067;50.710;14.492;2024-03-07T11:45:03;5.85;63.81
65470;DHT22;52067;50.710;14.492;2024-03-07T11:47:38;5.89;62.65
65470;DHT22;52067;50.710;14.492;2024-03-07T11:50:07;5.54;63.34
65470;DHT22;52067;50.710;14.492;2024-03-07T11:52:41;5.51;62.99
65470;DHT22;52067;50.710;14.492;2024-03-07T11:55:19;5.89;62.46
65470;DHT22;52067;50.710;14.492;2024-03-07T11:57:47;6.29;61.67
65470;DHT22;52067;50.710;14.492;2024-03-07T12:00:20;6.61;60.11
65470;DHT22;52067;50.710;14.492;2024-03-07T12:02:49;6.00;62.04
65470;DHT22;52067;50.710;14.492;2024-03-07T12:05:15;5.86;62.44
65470;DHT22;52067;50.710;14.492;2024-03-07T12:07:44;5.82;62.70
65470;DHT22;52067;50.710;14.492;2024-03-07T12:10:17;5.62;63.40
65470;DHT22;52067;50.710;14.492;2024-03-07T12:12:50;5.55;63.11
65470;DHT22;52067;50.710;14.492;2024-03-07T12:15:15;5.56;63.84
65470;DHT22;52067;50.710;14.492;2024-03-07T12:17:45;5.44;63.35
65470;DHT22;52067;50.710;14.492;2024-03-07T12:20:12;5.38;62.97
65470;DHT22;52067;50.710;14.492;2024-03-07T12:22:58;5.26;63.66
65470;DHT22;52067;50.710;14.492;2024-03-07T12:25:26;5.48;62.52
65470;DHT22;52067;50.710;14.492;2024-03-07T12:28:03;5.42;62.43
65470;DHT22;52067;50.710;14.492;2024-03-07T12:30:32;5.48;62.84
65470;DHT22;52067;50.710;14.492;2024-03-07T12:32:59;5.50;62.50
65470;DHT22;52067;50.710;14.492;2024-03-07T12:35:27;5.90;63.47
65470;DHT22;52067;50.710;14.492;2024-03-07T12:37:53;5.78;61.75
65470;DHT22;52067;50.710;14.492;2024-03-07T12:40:20;5.40;62.97
65470;DHT22;52067;50.710;14.492;2024-03-07T12:42:50;5.35;61.75
65470;DHT22;52067;50.710;14.492;2024-03-07T12:45:19;5.28;61.24
65470;DHT22;52067;50.710;14.492;2024-03-07T12:47:51;5.48;62.47
65470;DHT22;52067;50.710;14.492;2024-03-07T12:50:20;5.50;62.25
65470;DHT22;52067;50.710;14.492;2024-03-07T12:52:49;5.63;60.63
65470;DHT22;52067;50.710;14.492;2024-03-07T12:55:17;5.90;60.96
65470;DHT22;52067;50.710;14.492;2024-03-07T12:57:52;5.81;61.91
65470;DHT22;52067;50.710;14.492;2024-03-07T13:00:19;5.99;61.01
65470;DHT22;52067;50.710;14.492;2024-03-07T13:02:49;5.95;60.60
65470;DHT22;52067;50.710;14.492;2024-03-07T13:05:15;6.20;61.04
65470;DHT22;52067;50.710;14.492;2024-03-07T13:07:47;6.21;60.44
65470;DHT22;52067;50.710;14.492;2024-03-07T13:10:19;5.62;61.09
65470;DHT22;52067;50.710;14.492;2024-03-07T13:12:49;5.61;61.04
65470;DHT22;52067;50.710;14.492;2024-03-07T13:15:18;6.03;60.12
65470;DHT22;52067;50.710;14.492;2024-03-07T13:17:46;5.56;61.18
65470;DHT22;52067;50.710;14.492;2024-03-07T13:20:14;5.75;62.41
65470;DHT22;52067;50.710;14.492;2024-03-07T13:22:41;5.79;61.97
65470;DHT22;52067;50.710;14.492;2024-03-07T13:25:20;5.52;60.35
65470;DHT22;52067;50.710;14.492;2024-03-07T13:30:25;5.48;59.79
65470;DHT22;52067;50.710;14.492;2024-03-07T13:32:58;5.72;61.92
65470;DHT22;52067;50.710;14.492;2024-03-07T13:35:24;5.50;59.10
65470;DHT22;52067;50.710;14.492;2024-03-07T13:37:51;5.58;60.59
65470;DHT22;52067;50.710;14.492;2024-03-07T13:40:19;5.90;59.91
65470;DHT22;52067;50.710;14.492;2024-03-07T13:42:51;6.02;59.68
65470;DHT22;52067;50.710;14.492;2024-03-07T13:45:18;6.03;59.97
65470;DHT22;52067;50.710;14.492;2024-03-07T13:47:46;6.44;58.76
65470;DHT22;52067;50.710;14.492;2024-03-07T13:50:14;6.67;57.52
65470;DHT22;52067;50.710;14.492;2024-03-07T13:52:40;6.60;57.93
65470;DHT22;52067;50.710;14.492;2024-03-07T13:55:10;6.65;57.33
65470;DHT22;52067;50.710;14.492;2024-03-07T13:57:50;6.36;58.26
65470;DHT22;52067;50.710;14.492;2024-03-07T14:00:32;6.40;57.77
65470;DHT22;52067;50.710;14.492;2024-03-07T14:06:08;6.27;57.35
65470;DHT22;52067;50.710;14.492;2024-03-07T14:09:49;5.92;57.68
65470;DHT22;52067;50.710;14.492;2024-03-07T14:15:24;6.45;57.56
65470;DHT22;52067;50.710;14.492;2024-03-07T14:18:32;5.93;58.83
65470;DHT22;52067;50.710;14.492;2024-03-07T14:21:20;5.99;58.83
65470;DHT22;52067;50.710;14.492;2024-03-07T14:31:51;5.50;59.32
65470;DHT22;52067;50.710;14.492;2024-03-07T14:35:14;5.58;59.69
65470;DHT22;52067;50.710;14.492;2024-03-07T14:37:37;5.37;60.42
65470;DHT22;52067;50.710;14.492;2024-03-07T14:40:12;5.17;60.39
65470;DHT22;52067;50.710;14.492;2024-03-07T14:42:44;5.19;60.19
65470;DHT22;52067;50.710;14.492;2024-03-07T14:45:21;5.23;60.37
65470;DHT22;52067;50.710;14.492;2024-03-07T14:47:49;5.26;59.92
65470;DHT22;52067;50.710;14.492;2024-03-07T14:50:15;5.09;60.48
65470;DHT22;52067;50.710;14.492;2024-03-07T14:52:42;4.86;59.77
65470;DHT22;52067;50.710;14.492;2024-03-07T14:55:10;4.86;61.08
65470;DHT22;52067;50.710;14.492;2024-03-07T14:57:44;5.04;60.99
65470;DHT22;52067;50.710;14.492;2024-03-07T15:00:11;5.07;61.51
65470;DHT22;52067;50.710;14.492;2024-03-07T15:02:46;4.68;61.77
65470;DHT22;52067;50.710;14.492;2024-03-07T15:05:12;4.71;62.06
65470;DHT22;52067;50.710;14.492;2024-03-07T15:07:41;4.65;61.85
65470;DHT22;52067;50.710;14.492;2024-03-07T15:10:24;4.72;62.14
65470;DHT22;52067;50.710;14.492;2024-03-07T15:12:52;4.79;61.86
65470;DHT22;52067;50.710;14.492;2024-03-07T15:15:18;4.75;61.32
65470;DHT22;52067;50.710;14.492;2024-03-07T15:17:45;4.38;63.10
65470;DHT22;52067;50.710;14.492;2024-03-07T15:20:12;4.34;62.13
65470;DHT22;52067;50.710;14.492;2024-03-07T15:22:56;4.35;62.68
65470;DHT22;52067;50.710;14.492;2024-03-07T15:25:25;4.37;62.76
65470;DHT22;52067;50.710;14.492;2024-03-07T15:27:54;4.30;62.71
65470;DHT22;52067;50.710;14.492;2024-03-07T15:30:26;4.27;62.84
65470;DHT22;52067;50.710;14.492;2024-03-07T15:33:00;4.22;62.53
65470;DHT22;52067;50.710;14.492;2024-03-07T15:35:26;4.03;63.28
65470;DHT22;52067;50.710;14.492;2024-03-07T15:37:52;4.25;63.71
65470;DHT22;52067;50.710;14.492;2024-03-07T15:40:19;4.24;62.75
65470;DHT22;52067;50.710;14.492;2024-03-07T15:42:50;4.13;62.94
65470;DHT22;52067;50.710;14.492;2024-03-07T15:45:25;4.17;63.18
65470;DHT22;52067;50.710;14.492;2024-03-07T15:47:55;4.18;62.90
65470;DHT22;52067;50.710;14.492;2024-03-07T15:50:24;4.13;62.78
65470;DHT22;52067;50.710;14.492;2024-03-07T15:52:54;4.14;63.37
65470;DHT22;52067;50.710;14.492;2024-03-07T15:55:22;4.24;62.90
65470;DHT22;52067;50.710;14.492;2024-03-07T15:57:55;4.11;63.27
65470;DHT22;52067;50.710;14.492;2024-03-07T16:00:27;4.11;63.47
65470;DHT22;52067;50.710;14.492;2024-03-07T16:02:56;4.11;64.36